map of URC home
URC - Airport
Location
City:  Ürümqi, Xinjiang, China
Name:Ürümqi Diwopu International Airport
ICAO:ZWWW
IATA:URC

Details
Type:Airport (Aerodrome, Airfield)
Use:Public/Civil, International (customs port of entry)
Latitude:43°54'N (43.908)
Longitude:87°28'E (87.475)
Elevation:2126 ft (648 m)
Variation:2.95°E (WMM2015 magnetic declination)
0.02° annual change
Runways:1
Longest:11811 × 148 ft (3600 × 45 m), paved

Time
Time Zone:UTC+8
Local Time:

Weather
METAR:ZWWW 161330Z 06001MPS 4000 FU NSC M10/M13 Q1038 NOSIG

Related Locations
Nearby:
Farthest:SCQU: 11519 mi / 18537 km
Quellon [Inio Airport], LL, CL

Find:

   beyond  
but within

Other Information
Maps:
NOTAMs:
Links:
Sources:

  
  • flag of China
  

Sectional Chart

Flight Planning
at skyvector.com

Satellite Image

Google Maps Satellite view

 

Copyright © 2004-2018 Karl L. Swartz. All rights reserved.
The Great Circle Mapper name and logo are trademarks of the Great Circle Mapper.
All other trademarks mentioned herein belong to their respective owners.
Please see credits for attibutions and further copyright information.

  Follow gcmap on Facebook Follow gcmap on Twitter Follow gcmap on Google+ GCmap on LinkedIn

hCard Microformat

Geo Microformat